Time;durP1;ratioP1;P1;durP2;ratioP2;P2;SDS_P1;SDS_P2;PMS_P1;PMS_P2;Temp;Humidity;BMP_temperature;BMP_pressure;BME280_temperature;BME280_humidity;BME280_pressure;Samples;Min_cycle;Max_cycle;Signal;HPM_P1;HPM_P2
2022/04/30 00:02:14;;;;;;;8.63;4.20;;;;;;;6.76;78.94;102954.69;5016507;28;20022;-46
2022/04/30 00:04:44;;;;;;;11.60;4.45;;;;;;;6.81;78.54;102955.19;5016695;28;20113;-47
2022/04/30 00:07:12;;;;;;;5.45;3.80;;;;;;;6.75;78.55;102948.75;5016111;28;20045;-47
2022/04/30 00:09:38;;;;;;;7.63;4.07;;;;;;;6.72;78.58;102948.16;5016214;28;20030;-48
2022/04/30 00:12:04;;;;;;;7.25;4.07;;;;;;;6.58;78.76;102954.25;5016084;28;20030;-47
2022/04/30 00:14:30;;;;;;;12.95;4.35;;;;;;;6.40;79.27;102950.41;5016560;28;20389;-48
2022/04/30 00:16:56;;;;;;;8.43;4.20;;;;;;;6.33;80.37;102950.81;5015957;28;20034;-48
2022/04/30 00:19:22;;;;;;;10.27;4.10;;;;;;;6.26;80.21;102944.47;5016169;28;20029;-48
2022/04/30 00:21:49;;;;;;;9.85;4.53;;;;;;;6.41;79.68;102942.56;5016119;28;20037;-48
2022/04/30 00:24:14;;;;;;;11.05;4.80;;;;;;;6.49;79.86;102944.63;5015727;28;20078;-48
2022/04/30 00:26:40;;;;;;;8.90;4.32;;;;;;;6.39;80.67;102947.03;5015818;28;20034;-48
2022/04/30 00:29:05;;;;;;;11.75;4.82;;;;;;;6.47;80.32;102943.91;5016539;28;20117;-48
2022/04/30 00:31:30;;;;;;;9.18;4.60;;;;;;;6.51;80.50;102947.91;5015685;28;20030;-47
2022/04/30 00:33:56;;;;;;;6.75;4.50;;;;;;;6.63;79.62;102936.75;4998141;28;20021;-47
2022/04/30 00:36:22;;;;;;;8.63;4.47;;;;;;;6.66;79.98;102940.88;5015890;28;20076;-47
2022/04/30 00:38:47;;;;;;;7.72;4.35;;;;;;;6.47;79.27;102938.75;5015503;28;20072;-47
2022/04/30 00:41:13;;;;;;;7.03;4.18;;;;;;;6.28;80.42;102936.66;4997952;28;20469;-47
2022/04/30 00:43:46;;;;;;;8.18;4.43;;;;;;;6.14;80.96;102935.03;5015355;28;20465;-47
2022/04/30 00:46:15;;;;;;;8.80;4.40;;;;;;;6.04;81.16;102934.00;5015427;28;20037;-48
2022/04/30 00:48:41;;;;;;;10.38;4.32;;;;;;;6.02;81.69;102923.03;5015385;28;20528;-48
2022/04/30 00:51:09;;;;;;;8.50;4.30;;;;;;;6.06;81.69;102927.84;5015553;28;20384;-48
2022/04/30 00:53:39;;;;;;;10.68;4.45;;;;;;;6.00;81.64;102927.44;5015567;28;20104;-48
2022/04/30 00:56:08;;;;;;;15.15;4.70;;;;;;;6.02;81.71;102928.19;5015551;28;20030;-48
2022/04/30 00:58:35;;;;;;;7.88;4.40;;;;;;;5.88;81.71;102929.06;5015431;28;20452;-48
2022/04/30 01:01:02;;;;;;;6.40;4.40;;;;;;;5.85;81.92;102924.16;5015115;28;20392;-48
2022/04/30 01:03:27;;;;;;;12.95;5.15;;;;;;;5.84;81.76;102928.47;5015009;28;20526;-47
2022/04/30 01:05:54;;;;;;;13.43;4.35;;;;;;;5.89;82.36;102923.00;5015091;28;20022;-47
2022/04/30 01:08:20;;;;;;;11.82;4.47;;;;;;;5.96;81.84;102920.91;5015281;28;20084;-47
2022/04/30 01:10:46;;;;;;;9.30;4.45;;;;;;;6.01;81.35;102918.81;5014870;28;20461;-47
2022/04/30 01:13:13;;;;;;;8.57;4.60;;;;;;;5.91;81.68;102923.72;5015104;28;20385;-47
2022/04/30 01:15:39;;;;;;;10.70;4.18;;;;;;;5.91;81.19;102923.72;5014977;28;20119;-47
2022/04/30 01:18:07;;;;;;;8.48;4.32;;;;;;;5.86;81.91;102925.78;4997260;28;20488;-47
2022/04/30 01:20:34;;;;;;;7.82;4.20;;;;;;;5.95;81.82;102924.38;4997290;28;20172;-47
2022/04/30 01:23:03;;;;;;;10.32;4.15;;;;;;;6.11;81.84;102922.41;5014663;28;20473;-47
2022/04/30 01:25:31;;;;;;;7.55;4.68;;;;;;;6.15;81.72;102915.31;5013505;28;20033;-48
2022/04/30 01:27:58;;;;;;;7.78;4.15;;;;;;;6.07;81.33;102915.81;4981075;28;20096;-48
2022/04/30 01:30:24;;;;;;;7.63;4.10;;;;;;;5.93;81.52;102916.78;5014575;28;20018;-48
2022/04/30 01:38:18;;;;;;;6.10;4.28;;;;;;;5.79;81.86;102898.91;5014814;28;20045;-48
2022/04/30 01:40:43;;;;;;;10.13;4.43;;;;;;;5.76;82.14;102904.25;5014698;28;20022;-49
2022/04/30 01:43:09;;;;;;;9.48;4.72;;;;;;;5.74;83.32;102901.78;5014874;28;20025;-48
2022/04/30 01:45:35;;;;;;;9.25;4.70;;;;;;;5.69;82.34;102900.44;5014311;28;20045;-48
2022/04/30 01:48:03;;;;;;;10.45;4.30;;;;;;;5.56;82.75;102900.44;5015041;28;20045;-48
2022/04/30 01:50:28;;;;;;;8.43;4.25;;;;;;;5.54;83.11;102895.41;5014538;28;20026;-48
2022/04/30 01:52:54;;;;;;;10.55;4.53;;;;;;;5.53;83.68;102892.97;5014259;28;20041;-47
2022/04/30 01:55:19;;;;;;;6.32;4.28;;;;;;;5.48;83.65;102893.25;5014199;28;20053;-47
2022/04/30 01:57:45;;;;;;;9.55;4.70;;;;;;;5.46;83.51;102886.59;5014107;28;20060;-48
2022/04/30 02:00:14;;;;;;;7.78;4.43;;;;;;;5.47;83.58;102883.09;5014047;28;20021;-47
2022/04/30 02:02:42;;;;;;;11.73;4.53;;;;;;;5.47;83.06;102885.66;5014618;28;20034;-48
2022/04/30 02:05:08;;;;;;;7.80;4.47;;;;;;;5.44;82.99;102879.00;5013938;28;20106;-48
2022/04/30 02:07:40;;;;;;;6.10;4.25;;;;;;;5.33;83.37;102882.28;5013986;28;20040;-48
2022/04/30 02:10:10;;;;;;;7.25;4.80;;;;;;;5.34;84.16;102883.09;5013848;28;20040;-48
2022/04/30 02:12:36;;;;;;;7.90;4.40;;;;;;;5.36;83.87;102876.13;5013952;28;20025;-47
2022/04/30 02:15:01;;;;;;;7.88;4.53;;;;;;;5.31;83.85;102878.97;5013455;28;20068;-47
2022/04/30 02:17:29;;;;;;;9.10;4.60;;;;;;;5.30;83.65;102872.22;5013867;28;20022;-47
2022/04/30 02:22:40;;;;;;;9.15;5.15;;;;;;;5.49;83.84;102878.69;5014589;28;20052;-48
2022/04/30 02:25:09;;;;;;;8.65;4.50;;;;;;;5.56;83.93;102872.22;5014008;28;20116;-47
2022/04/30 02:27:38;;;;;;;8.48;4.60;;;;;;;5.66;83.67;102861.22;5013992;28;20100;-47
2022/04/30 02:30:09;;;;;;;11.18;5.20;;;;;;;5.66;83.58;102862.97;5013992;28;20100;-47
2022/04/30 02:32:46;;;;;;;7.72;4.22;;;;;;;5.61;83.28;102865.03;5013627;28;20026;-48
2022/04/30 02:35:13;;;;;;;10.50;5.13;;;;;;;5.53;83.42;102864.75;5013980;28;20032;-48
2022/04/30 02:37:38;;;;;;;12.43;5.28;;;;;;;5.34;83.63;102871.09;5013814;28;20034;-48
2022/04/30 02:40:05;;;;;;;11.65;4.53;;;;;;;5.42;85.13;102861.16;5013638;28;20474;-47
2022/04/30 02:42:30;;;;;;;9.73;4.68;;;;;;;5.66;84.75;102860.41;5013862;28;20026;-48
2022/04/30 02:44:55;;;;;;;9.40;4.78;;;;;;;5.83;83.71;102861.84;5013771;28;20085;-48
2022/04/30 02:47:21;;;;;;;9.73;4.70;;;;;;;5.90;82.92;102860.50;4995874;28;20496;-48
2022/04/30 02:49:46;;;;;;;11.02;4.82;;;;;;;5.80;84.11;102865.44;5014059;28;20113;-47
2022/04/30 02:52:11;;;;;;;12.23;4.88;;;;;;;6.02;83.99;102864.00;5013396;28;20022;-47
2022/04/30 02:54:36;;;;;;;7.38;4.63;;;;;;;6.19;82.61;102861.09;5013726;28;20030;-47
2022/04/30 02:57:02;;;;;;;10.73;4.70;;;;;;;6.29;82.63;102861.25;5013971;28;20079;-50
2022/04/30 03:02:12;;;;;;;8.98;4.97;;;;;;;6.39;82.21;102849.44;5013581;28;20400;-54
2022/04/30 03:04:38;;;;;;;7.82;4.50;;;;;;;6.39;82.48;102846.84;5013297;28;20022;-47
2022/04/30 03:07:03;;;;;;;8.05;4.97;;;;;;;6.47;82.80;102856.56;5013475;28;20025;-47
2022/04/30 03:09:30;;;;;;;8.63;4.55;;;;;;;6.55;82.45;102852.53;5013350;28;20461;-48
2022/04/30 03:11:56;;;;;;;7.97;4.55;;;;;;;6.49;82.78;102852.97;5013205;28;20034;-48
2022/04/30 03:14:21;;;;;;;9.07;4.85;;;;;;;6.55;82.69;102849.94;5013314;28;20046;-47
2022/04/30 03:22:14;;;;;;;8.32;4.72;;;;;;;6.83;82.89;102844.59;5013312;28;20044;-48
2022/04/30 03:24:39;;;;;;;8.07;5.47;;;;;;;6.96;82.90;102837.59;5013137;28;20122;-54
2022/04/30 03:27:06;;;;;;;10.13;5.00;;;;;;;6.82;81.72;102841.19;5016550;28;20091;-48
2022/04/30 03:29:31;;;;;;;9.55;5.13;;;;;;;6.73;81.68;102834.13;5017160;28;20026;-47
2022/04/30 03:31:57;;;;;;;7.20;4.78;;;;;;;6.82;81.39;102832.66;4999271;28;20029;-48
2022/04/30 03:34:22;;;;;;;9.40;4.90;;;;;;;6.75;81.56;102833.09;5017065;28;20014;-48
2022/04/30 03:36:47;;;;;;;9.95;4.75;;;;;;;6.95;81.27;102823.94;5017030;28;20076;-48
2022/04/30 03:39:13;;;;;;;11.52;5.13;;;;;;;6.98;81.04;102830.59;5016974;28;20473;-48
2022/04/30 03:41:38;;;;;;;7.70;4.80;;;;;;;6.95;81.67;102828.25;5016950;28;20057;-47
2022/04/30 03:44:04;;;;;;;9.88;4.93;;;;;;;6.94;82.02;102816.34;5017116;28;20022;-48
2022/04/30 03:46:29;;;;;;;11.18;5.50;;;;;;;7.00;82.11;102809.00;5016914;28;20037;-48
2022/04/30 03:48:56;;;;;;;11.07;5.18;;;;;;;7.03;82.51;102813.09;5017021;28;20033;-47
2022/04/30 03:51:22;;;;;;;10.98;5.43;;;;;;;7.13;81.84;102810.66;5015291;28;20034;-46
2022/04/30 03:53:48;;;;;;;9.73;5.28;;;;;;;7.09;82.27;102814.41;5016724;28;20475;-47
2022/04/30 03:56:16;;;;;;;9.38;5.13;;;;;;;7.09;82.84;102810.06;5016393;28;20026;-48
2022/04/30 03:58:42;;;;;;;7.15;4.72;;;;;;;7.15;82.96;102814.75;5016551;28;20018;-46
2022/04/30 04:01:07;;;;;;;9.43;5.50;;;;;;;7.22;82.76;102815.09;5016287;28;20032;-48
2022/04/30 04:03:33;;;;;;;12.23;5.72;;;;;;;7.22;82.85;102809.97;5016474;28;20026;-47
2022/04/30 04:05:59;;;;;;;9.93;5.43;;;;;;;7.36;82.66;102804.59;4998704;28;20029;-48
2022/04/30 04:08:25;;;;;;;10.25;5.53;;;;;;;7.43;82.31;102805.78;5016245;28;20033;-47
2022/04/30 04:10:50;;;;;;;9.75;5.80;;;;;;;7.41;82.61;102810.22;5015948;28;20113;-48
2022/04/30 04:18:43;;;;;;;12.18;5.20;;;;;;;7.45;81.71;102811.63;5016314;28;20037;-48
2022/04/30 04:21:09;;;;;;;10.40;5.22;;;;;;;7.46;81.79;102813.25;5016157;28;20022;-48
2022/04/30 04:26:23;;;;;;;10.13;5.28;;;;;;;7.53;82.24;102815.38;4996842;28;20022;-48
2022/04/30 04:28:48;;;;;;;8.77;5.32;;;;;;;7.53;83.01;102817.94;4998248;28;20028;-47
2022/04/30 04:31:16;;;;;;;8.82;5.00;;;;;;;7.50;82.28;102819.00;5015951;28;20026;-48
2022/04/30 04:33:42;;;;;;;9.80;5.57;;;;;;;7.59;82.25;102814.88;5015252;28;20080;-48
2022/04/30 04:36:07;;;;;;;12.90;5.40;;;;;;;7.76;81.31;102823.91;5015652;28;20030;-48
2022/04/30 04:38:32;;;;;;;10.75;5.28;;;;;;;7.79;82.07;102823.66;5015666;28;20388;-48
2022/04/30 04:40:57;;;;;;;9.88;5.22;;;;;;;7.81;81.45;102820.03;5015871;28;20076;-48
2022/04/30 04:43:23;;;;;;;8.80;4.68;;;;;;;7.75;82.20;102827.41;5015404;28;20524;-48
2022/04/30 04:45:48;;;;;;;10.52;5.18;;;;;;;7.86;82.00;102829.97;5015495;28;20092;-47
2022/04/30 04:48:14;;;;;;;9.95;5.45;;;;;;;7.89;82.14;102825.41;5015441;28;20028;-48
2022/04/30 04:50:40;;;;;;;10.32;5.82;;;;;;;7.86;80.94;102809.38;5015416;28;20099;-48
2022/04/30 04:53:06;;;;;;;13.07;5.20;;;;;;;7.97;80.74;102817.09;5015284;28;20022;-48
2022/04/30 04:55:31;;;;;;;11.80;5.18;;;;;;;8.08;81.05;102827.34;5015523;28;20386;-48
2022/04/30 04:57:57;;;;;;;10.50;6.20;;;;;;;8.08;81.45;102827.34;5015276;28;20030;-47
2022/04/30 05:00:22;;;;;;;13.20;5.07;;;;;;;8.05;81.35;102824.19;5015173;28;20428;-48
2022/04/30 05:02:47;;;;;;;9.10;5.70;;;;;;;8.03;82.25;102828.69;4997521;28;20034;-48
2022/04/30 05:05:13;;;;;;;9.32;5.05;;;;;;;8.00;81.87;102828.88;4997490;28;20022;-46
2022/04/30 05:07:39;;;;;;;12.52;5.50;;;;;;;8.12;81.50;102835.69;5015592;28;20350;-48
2022/04/30 05:10:04;;;;;;;9.25;5.57;;;;;;;8.28;81.52;102836.09;4997746;28;20033;-47
2022/04/30 05:12:29;;;;;;;8.80;5.40;;;;;;;8.31;80.59;102832.44;5015293;28;20037;-47
2022/04/30 05:14:55;;;;;;;10.00;5.50;;;;;;;8.34;80.15;102839.94;5014690;28;20589;-48
2022/04/30 05:17:21;;;;;;;8.65;5.10;;;;;;;8.27;81.56;102833.66;5014852;28;20026;-48
2022/04/30 05:19:46;;;;;;;11.45;5.20;;;;;;;8.19;81.27;102843.72;5015405;28;20029;-47
2022/04/30 05:22:13;;;;;;;10.30;5.20;;;;;;;8.23;81.78;102835.66;5015603;28;20042;-48
2022/04/30 05:24:39;;;;;;;10.45;5.43;;;;;;;8.23;81.17;102834.81;5014862;28;20033;-47
2022/04/30 05:27:04;;;;;;;11.35;5.30;;;;;;;8.16;80.50;102836.25;5015142;28;20041;-46
2022/04/30 05:29:29;;;;;;;8.23;4.93;;;;;;;8.16;81.26;102841.41;5013956;28;20117;-47
2022/04/30 05:31:54;;;;;;;10.00;5.45;;;;;;;8.17;81.19;102838.72;5014599;28;20483;-48
2022/04/30 05:34:20;;;;;;;11.07;4.95;;;;;;;8.17;79.88;102845.59;5014961;28;20080;-46
2022/04/30 05:36:45;;;;;;;11.38;5.18;;;;;;;8.34;80.28;102839.94;5014534;28;20032;-47
2022/04/30 05:39:10;;;;;;;13.40;4.80;;;;;;;8.43;78.90;102841.84;5014722;28;20505;-47
2022/04/30 05:41:35;;;;;;;10.63;4.72;;;;;;;8.69;78.91;102836.31;5014720;28;20100;-47
2022/04/30 05:44:03;;;;;;;10.55;4.90;;;;;;;8.73;79.63;102840.31;5014550;28;20030;-46
2022/04/30 05:46:28;;;;;;;11.93;4.45;;;;;;;8.78;79.30;102840.75;5013161;28;20033;-47
2022/04/30 05:48:54;;;;;;;7.75;4.70;;;;;;;8.76;79.05;102835.72;5011524;28;20030;-47
2022/04/30 05:51:20;;;;;;;8.43;4.53;;;;;;;8.81;78.63;102837.94;4995592;28;20543;-45
2022/04/30 05:53:45;;;;;;;9.50;4.55;;;;;;;8.88;77.98;102836.47;5013026;28;20048;-46
2022/04/30 05:56:10;;;;;;;7.93;4.32;;;;;;;8.99;77.23;102831.25;5013192;28;20030;-46
2022/04/30 05:58:36;;;;;;;9.30;4.63;;;;;;;9.05;78.93;102832.50;5012291;28;20037;-47
2022/04/30 06:01:02;;;;;;;13.20;4.28;;;;;;;9.27;77.13;102828.97;5014596;28;20034;-52
2022/04/30 06:03:29;;;;;;;14.35;5.05;;;;;;;9.37;76.28;102835.00;5014300;28;20068;-46
2022/04/30 06:05:54;;;;;;;10.80;4.65;;;;;;;9.49;75.44;102831.41;5014283;28;20053;-46
2022/04/30 06:08:20;;;;;;;8.40;4.45;;;;;;;9.43;75.21;102833.66;5014100;28;20034;-46
2022/04/30 06:10:45;;;;;;;8.13;4.10;;;;;;;9.34;74.07;102832.66;5013226;28;20046;-47
2022/04/30 06:13:11;;;;;;;8.73;4.28;;;;;;;9.54;74.53;102835.34;5014410;28;20439;-47
2022/04/30 06:15:36;;;;;;;11.43;4.70;;;;;;;9.63;73.83;102829.38;5013889;28;20426;-46
2022/04/30 06:18:02;;;;;;;8.25;4.50;;;;;;;9.70;72.48;102826.16;5014074;28;20052;-47
2022/04/30 06:20:27;;;;;;;8.55;4.57;;;;;;;9.87;71.69;102827.31;5014235;28;20022;-46
2022/04/30 06:22:52;;;;;;;7.50;4.05;;;;;;;9.91;72.22;102830.44;5013649;28;20025;-46
2022/04/30 06:25:17;;;;;;;9.57;4.50;;;;;;;9.83;70.28;102830.28;5014091;28;20104;-47
2022/04/30 06:27:43;;;;;;;7.60;4.20;;;;;;;10.12;70.95;102825.97;5013744;28;20018;-46
2022/04/30 06:30:09;;;;;;;7.32;4.05;;;;;;;10.44;70.26;102835.28;5012484;28;20022;-46
2022/04/30 06:32:35;;;;;;;7.28;4.18;;;;;;;10.88;68.17;102843.44;5013850;28;20469;-47
2022/04/30 06:35:01;;;;;;;9.23;4.10;;;;;;;11.04;65.36;102840.28;4995994;28;20198;-46
2022/04/30 06:37:26;;;;;;;10.98;3.80;;;;;;;10.98;64.76;102836.47;5013967;28;20033;-46
2022/04/30 06:39:52;;;;;;;11.45;4.32;;;;;;;11.47;63.73;102838.91;5013892;28;20539;-46
2022/04/30 06:42:17;;;;;;;8.13;3.97;;;;;;;11.78;62.60;102829.09;5013820;28;20029;-47
2022/04/30 06:44:43;;;;;;;8.98;3.90;;;;;;;12.07;61.43;102828.16;5013460;28;20491;-47
2022/04/30 06:47:08;;;;;;;8.20;3.83;;;;;;;14.94;53.39;102831.00;5012647;28;20072;-46
2022/04/30 06:49:33;;;;;;;8.68;4.20;;;;;;;16.90;47.63;102834.28;5013883;28;20354;-47
2022/04/30 06:51:58;;;;;;;9.13;3.50;;;;;;;13.87;55.40;102824.94;5013514;28;20037;-46
2022/04/30 06:57:08;;;;;;;7.40;3.90;;;;;;;12.51;59.53;102836.00;5013773;28;20384;-47
2022/04/30 06:59:37;;;;;;;9.07;3.78;;;;;;;12.12;60.36;102828.53;4995685;28;20026;-47
2022/04/30 07:02:11;;;;;;;7.90;3.67;;;;;;;11.66;62.80;102830.25;4999364;28;20561;-46
2022/04/30 07:04:38;;;;;;;10.25;4.30;;;;;;;11.47;62.74;102831.97;5016131;28;20030;-45
2022/04/30 07:07:04;;;;;;;7.97;3.88;;;;;;;11.67;62.85;102829.28;5017532;28;20461;-47
2022/04/30 07:09:32;;;;;;;9.40;3.88;;;;;;;12.71;60.29;102832.25;4999856;28;20033;-48
2022/04/30 07:11:57;;;;;;;11.23;4.38;;;;;;;12.99;57.60;102826.94;5017464;28;20423;-47
2022/04/30 07:14:23;;;;;;;9.40;3.92;;;;;;;13.01;58.73;102835.41;5017018;28;20042;-46
2022/04/30 07:16:48;;;;;;;10.85;4.00;;;;;;;12.62;59.08;102823.59;5017397;28;20024;-47
2022/04/30 07:19:13;;;;;;;8.27;3.60;;;;;;;12.36;59.68;102826.16;5017037;28;20030;-46
2022/04/30 07:21:38;;;;;;;7.13;3.67;;;;;;;13.96;54.75;102821.38;5017550;28;20037;-47
2022/04/30 07:24:04;;;;;;;6.95;3.88;;;;;;;18.30;45.45;102826.28;5017206;28;20069;-46
2022/04/30 07:26:29;;;;;;;7.97;3.65;;;;;;;19.02;42.12;102825.19;5016266;28;20428;-44
2022/04/30 07:28:55;;;;;;;10.30;3.60;;;;;;;18.00;43.50;102820.34;5016771;28;20121;-46
2022/04/30 07:31:21;;;;;;;7.97;3.70;;;;;;;17.19;43.59;102825.66;5017066;28;20029;-45
2022/04/30 07:33:51;;;;;;;8.77;3.67;;;;;;;19.70;39.81;102833.13;4999157;28;20088;-45
2022/04/30 07:36:17;;;;;;;7.10;3.30;;;;;;;20.38;37.09;102824.34;5017509;28;20022;-46
2022/04/30 07:38:42;;;;;;;7.07;3.25;;;;;;;21.62;33.76;102818.94;5017179;28;20033;-46
2022/04/30 07:41:07;;;;;;;5.53;3.10;;;;;;;21.85;33.52;102822.84;4999426;28;20381;-44
2022/04/30 07:43:33;;;;;;;7.82;3.35;;;;;;;20.10;37.26;102814.84;5016498;28;20022;-47
2022/04/30 07:45:58;;;;;;;8.00;3.35;;;;;;;15.62;45.39;102828.81;5016495;28;20084;-46
2022/04/30 07:48:23;;;;;;;7.97;3.45;;;;;;;17.78;42.66;102827.38;5016928;28;20030;-45
2022/04/30 07:50:49;;;;;;;9.60;3.13;;;;;;;19.40;36.96;102819.50;5015170;28;20314;-45
2022/04/30 07:53:15;;;;;;;7.95;3.40;;;;;;;18.60;40.06;102821.66;5016549;28;20018;-46
2022/04/30 07:55:42;;;;;;;5.50;2.90;;;;;;;17.72;39.78;102820.22;5016738;28;20092;-46
2022/04/30 07:58:07;;;;;;;6.60;3.20;;;;;;;17.40;40.07;102822.28;5016464;28;20465;-46
2022/04/30 08:00:33;;;;;;;6.53;3.10;;;;;;;17.37;40.55;102820.03;5017046;28;20026;-46
2022/04/30 08:02:59;;;;;;;6.38;3.10;;;;;;;17.09;41.09;102817.25;4998729;28;20067;-46
2022/04/30 08:05:26;;;;;;;7.88;2.90;;;;;;;17.77;40.63;102810.03;5016140;28;20384;-46
2022/04/30 08:07:52;;;;;;;6.60;2.80;;;;;;;16.87;42.45;102813.75;4982802;28;20493;-46
2022/04/30 08:10:18;;;;;;;8.93;3.10;;;;;;;17.43;39.85;102818.50;5016343;28;20416;-46
2022/04/30 08:12:43;;;;;;;9.38;2.85;;;;;;;17.38;40.54;102811.22;5015287;28;20026;-47
2022/04/30 08:15:09;;;;;;;8.23;2.70;;;;;;;17.83;40.02;102803.28;5015844;28;20481;-50
2022/04/30 08:17:35;;;;;;;5.03;2.90;;;;;;;17.19;39.99;102804.75;5016230;28;20036;-46
2022/04/30 08:20:01;;;;;;;4.72;2.85;;;;;;;16.91;41.54;102812.41;5015827;28;20030;-45
2022/04/30 08:22:27;;;;;;;7.60;3.20;;;;;;;16.72;42.08;102805.88;5015194;28;20441;-45
2022/04/30 08:24:52;;;;;;;6.90;2.88;;;;;;;16.98;41.47;102802.06;5015614;28;20105;-45
2022/04/30 08:27:17;;;;;;;5.15;3.03;;;;;;;16.33;42.71;102811.28;5016146;28;20024;-48
2022/04/30 08:29:44;;;;;;;7.82;2.83;;;;;;;15.55;44.71;102807.84;5015746;28;20024;-45
2022/04/30 08:32:11;;;;;;;5.10;2.78;;;;;;;15.27;44.91;102802.25;5015925;28;20022;-44
2022/04/30 08:34:36;;;;;;;7.60;3.15;;;;;;;14.98;44.62;102808.06;5016135;28;20014;-46
2022/04/30 08:37:01;;;;;;;5.90;2.83;;;;;;;15.09;44.04;102797.28;5016092;28;20040;-47
2022/04/30 08:39:27;;;;;;;6.63;3.30;;;;;;;15.25;44.04;102794.63;5015613;28;20033;-44
2022/04/30 08:41:52;;;;;;;6.28;3.30;;;;;;;15.01;44.92;102805.13;5015789;28;20088;-46
2022/04/30 08:44:18;;;;;;;7.95;2.95;;;;;;;15.30;44.67;102804.53;5015540;28;20022;-47
2022/04/30 08:46:44;;;;;;;5.72;3.05;;;;;;;16.14;43.42;102799.53;5015608;28;20045;-45
2022/04/30 08:49:10;;;;;;;4.93;2.80;;;;;;;16.99;42.66;102799.25;5015534;28;20033;-46
2022/04/30 08:51:36;;;;;;;5.65;2.65;;;;;;;17.80;40.24;102788.78;5015589;28;20041;-46
2022/04/30 08:54:02;;;;;;;4.43;2.80;;;;;;;17.06;42.34;102797.56;5015245;28;20021;-46
2022/04/30 08:56:28;;;;;;;6.18;3.00;;;;;;;16.79;41.97;102792.94;5015299;28;20033;-46
2022/04/30 08:59:03;;;;;;;5.40;2.63;;;;;;;15.60;44.39;102789.91;5015434;28;20350;-46
2022/04/30 09:01:29;;;;;;;6.38;2.70;;;;;;;15.23;45.80;102795.78;5015407;28;20076;-45
2022/04/30 09:03:55;;;;;;;5.80;2.80;;;;;;;15.32;46.78;102789.56;5014833;28;20026;-46
2022/04/30 09:06:20;;;;;;;5.00;3.00;;;;;;;14.88;47.76;102790.84;5014806;28;20037;-45
2022/04/30 09:08:50;;;;;;;8.65;3.10;;;;;;;14.72;48.70;102780.44;5014900;28;20464;-46
2022/04/30 09:11:15;;;;;;;4.20;2.70;;;;;;;14.41;50.05;102788.94;5014932;28;20018;-45
2022/04/30 09:13:43;;;;;;;6.22;3.13;;;;;;;14.59;49.03;102793.16;5014312;28;20381;-46
2022/04/30 09:16:17;;;;;;;8.73;3.47;;;;;;;13.49;52.09;102784.69;5015132;28;20116;-46
2022/04/30 09:18:42;;;;;;;6.65;3.05;;;;;;;13.65;53.17;102786.56;5014984;28;20029;-47
2022/04/30 09:21:13;;;;;;;7.25;3.17;;;;;;;13.18;55.15;102793.00;5015238;28;20030;-46
2022/04/30 09:23:39;;;;;;;6.55;2.60;;;;;;;13.58;54.48;102786.38;4997503;28;20122;-47
2022/04/30 09:26:05;;;;;;;9.40;3.65;;;;;;;12.88;54.94;102782.13;5014732;28;20124;-46
2022/04/30 09:28:34;;;;;;;8.15;3.50;;;;;;;12.97;55.12;102789.94;5014904;28;20029;-47
2022/04/30 09:31:18;;;;;;;7.60;3.35;;;;;;;12.95;54.79;102784.13;5014827;28;20077;-47
2022/04/30 09:33:57;;;;;;;5.80;3.80;;;;;;;12.69;54.83;102789.28;5014543;28;20117;-47
2022/04/30 09:39:15;;;;;;;7.05;3.83;;;;;;;12.97;55.11;102782.97;5000358;28;20092;-45
2022/04/30 09:41:41;;;;;;;9.38;3.58;;;;;;;12.79;54.10;102788.22;5014685;28;20468;-50
2022/04/30 09:44:08;;;;;;;5.80;3.10;;;;;;;12.69;54.15;102786.69;5014995;28;20036;-47
2022/04/30 09:46:37;;;;;;;14.85;7.13;;;;;;;12.63;52.99;102782.94;5014367;28;20057;-46
2022/04/30 09:54:36;;;;;;;4.53;2.53;;;;;;;12.79;52.84;102771.84;5014955;28;20436;-45
2022/04/30 09:57:04;;;;;;;6.05;2.40;;;;;;;12.70;51.11;102776.16;5014732;28;20028;-47
2022/04/30 09:59:30;;;;;;;7.13;2.83;;;;;;;13.15;50.95;102774.31;5014383;28;20026;-46
2022/04/30 10:01:56;;;;;;;7.03;2.50;;;;;;;13.21;49.98;102777.09;4996394;28;20469;-47
2022/04/30 10:04:23;;;;;;;8.38;2.47;;;;;;;13.42;49.67;102773.31;5013867;28;20030;-47
2022/04/30 10:06:50;;;;;;;3.80;2.42;;;;;;;13.20;49.77;102767.69;5014299;28;20030;-46
2022/04/30 10:09:19;;;;;;;4.80;2.35;;;;;;;13.23;49.53;102776.94;5014131;28;20112;-46
2022/04/30 10:11:54;;;;;;;4.28;2.50;;;;;;;13.32;49.14;102761.28;5014090;28;20029;-47
2022/04/30 10:14:48;;;;;;;4.68;2.28;;;;;;;13.75;49.46;102763.81;5013958;28;20547;-47
2022/04/30 10:17:17;;;;;;;3.92;2.53;;;;;;;13.38;51.07;102759.84;5013786;28;20036;-47
2022/04/30 10:20:14;;;;;;;5.60;2.60;;;;;;;13.52;50.71;102767.03;5014088;28;20033;-46
2022/04/30 10:22:50;;;;;;;6.93;2.80;;;;;;;13.82;50.29;102764.03;4997572;28;20121;-46
2022/04/30 10:25:15;;;;;;;5.35;3.00;;;;;;;13.51;51.08;102762.78;5013730;28;20038;-47
2022/04/30 10:27:43;;;;;;;6.43;2.83;;;;;;;13.41;52.46;102762.13;5013432;28;20420;-46
2022/04/30 10:30:23;;;;;;;5.47;2.88;;;;;;;13.42;53.46;102748.16;5013459;28;20385;-47
2022/04/30 10:32:59;;;;;;;7.00;3.00;;;;;;;13.36;52.99;102753.19;5014328;28;20026;-46
2022/04/30 10:35:32;;;;;;;7.80;3.28;;;;;;;13.23;53.21;102750.97;5013016;28;20063;-47
2022/04/30 10:38:10;;;;;;;;;;;;;;;13.42;53.43;102740.38;5014203;28;20022;-45
2022/04/30 10:40:40;;;;;;;8.80;3.15;;;;;;;13.22;54.66;102742.38;5013743;28;19917;-47
2022/04/30 10:43:26;;;;;;;6.45;2.95;;;;;;;13.25;55.28;102736.06;5013718;28;20488;-47
2022/04/30 10:45:53;;;;;;;5.80;3.30;;;;;;;13.09;57.25;102744.63;4995936;28;20034;-46
2022/04/30 10:48:19;;;;;;;8.80;3.17;;;;;;;12.83;55.95;102740.28;5013790;28;20022;-46
2022/04/30 10:50:55;;;;;;;5.75;2.67;;;;;;;12.56;54.71;102730.84;5014012;28;20073;-47
2022/04/30 10:53:27;;;;;;;9.63;2.70;;;;;;;12.90;55.50;102735.25;5013737;28;20109;-47
2022/04/30 10:55:54;;;;;;;5.55;2.58;;;;;;;12.84;55.07;102728.91;5013800;28;20381;-47
2022/04/30 10:58:23;;;;;;;6.75;2.50;;;;;;;12.98;55.37;102731.91;5013386;28;20041;-48
2022/04/30 11:00:49;;;;;;;7.03;2.70;;;;;;;12.67;57.24;102728.97;5014089;28;20034;-47
2022/04/30 11:03:14;;;;;;;6.30;2.38;;;;;;;12.74;56.88;102727.38;5013554;28;20041;-47
2022/04/30 11:05:42;;;;;;;6.47;2.50;;;;;;;12.60;57.03;102724.41;5013544;28;20032;-46
2022/04/30 11:08:07;;;;;;;4.53;2.30;;;;;;;12.46;57.61;102724.13;5013255;28;20156;-46
2022/04/30 11:10:33;;;;;;;6.43;2.42;;;;;;;12.41;57.75;102733.19;5013270;28;20053;-47
2022/04/30 11:13:05;;;;;;;6.70;2.17;;;;;;;12.75;56.76;102723.84;5013252;28;20085;-48
2022/04/30 11:15:31;;;;;;;6.88;2.78;;;;;;;12.77;55.80;102725.28;4992260;28;20049;-47
2022/04/30 11:17:59;;;;;;;10.02;2.75;;;;;;;12.95;55.07;102729.63;4993858;28;20030;-47
2022/04/30 11:20:25;;;;;;;6.50;2.38;;;;;;;13.19;55.35;102732.31;4993562;28;20084;-47
2022/04/30 11:23:00;;;;;;;7.18;2.65;;;;;;;13.03;54.58;102724.44;4993773;28;20030;-45
2022/04/30 11:25:36;;;;;;;7.53;2.55;;;;;;;12.77;54.29;102714.91;4991782;28;20078;-48
2022/04/30 11:28:08;;;;;;;10.85;2.70;;;;;;;13.02;55.02;102715.84;4992662;28;20038;-44
2022/04/30 11:30:36;;;;;;;8.50;2.60;;;;;;;13.13;54.40;102719.16;4991866;28;20038;-47
2022/04/30 11:33:02;;;;;;;5.55;2.63;;;;;;;13.57;54.60;102721.56;4993128;28;20432;-42
2022/04/30 11:35:27;;;;;;;6.57;2.55;;;;;;;13.37;55.88;102714.06;4992965;28;20026;-46
2022/04/30 11:37:53;;;;;;;9.38;2.90;;;;;;;13.12;57.03;102720.09;4993526;28;20026;-44
2022/04/30 11:40:22;;;;;;;6.80;2.60;;;;;;;12.98;57.00;102714.53;4994533;28;20030;-46
2022/04/30 11:43:01;;;;;;;7.95;2.72;;;;;;;12.86;56.89;102710.59;4992812;28;20022;-49
2022/04/30 11:45:33;;;;;;;4.38;2.45;;;;;;;12.98;57.64;102711.16;4993394;28;20026;-46
2022/04/30 11:48:00;;;;;;;8.70;2.80;;;;;;;13.15;56.12;102718.03;4993574;28;20084;-45
2022/04/30 11:50:26;;;;;;;6.05;2.50;;;;;;;13.17;56.85;102716.06;4996850;28;20037;-46
2022/04/30 11:52:53;;;;;;;4.30;2.30;;;;;;;13.15;55.75;102707.66;4996634;28;20466;-47
2022/04/30 11:55:20;;;;;;;6.15;2.58;;;;;;;13.18;56.56;102707.34;4995572;28;20014;-47
2022/04/30 11:57:46;;;;;;;6.60;2.63;;;;;;;13.34;56.15;102704.00;4997036;28;20027;-47
2022/04/30 12:00:13;;;;;;;4.18;2.20;;;;;;;13.15;54.72;102707.66;4997217;28;20382;-45
2022/04/30 12:02:46;;;;;;;6.18;2.47;;;;;;;13.38;54.82;102704.47;4996617;28;20160;-47